createdAt,value
2019-01-10T00:01:38.176Z,3.90
2019-01-10T00:04:07.563Z,3.80
2019-01-10T00:06:38.706Z,3.80
2019-01-10T00:09:08.263Z,3.80
2019-01-10T00:11:37.683Z,3.80
2019-01-10T00:14:07.183Z,3.80
2019-01-10T00:16:36.591Z,3.70
2019-01-10T00:19:05.973Z,3.70
2019-01-10T00:21:35.427Z,3.70
2019-01-10T00:24:05.203Z,3.70
2019-01-10T00:26:34.764Z,3.70
2019-01-10T00:29:04.261Z,3.60
2019-01-10T00:31:33.697Z,3.60
2019-01-10T00:34:03.184Z,3.60
2019-01-10T00:36:32.663Z,3.60
2019-01-10T00:39:02.153Z,3.60
2019-01-10T00:41:31.614Z,3.50
2019-01-10T00:44:01.011Z,3.50
2019-01-10T00:46:30.508Z,3.50
2019-01-10T00:48:59.915Z,3.50
2019-01-10T00:51:29.361Z,3.50
2019-01-10T00:53:58.874Z,3.50
2019-01-10T00:56:28.353Z,3.40
2019-01-10T00:58:57.825Z,3.40
2019-01-10T01:01:27.231Z,3.40
2019-01-10T01:03:56.695Z,3.40
2019-01-10T01:06:26.235Z,3.40
2019-01-10T01:08:55.819Z,3.40
2019-01-10T01:11:25.331Z,3.40
2019-01-10T01:13:54.773Z,3.40
2019-01-10T01:16:24.265Z,3.40
2019-01-10T01:18:53.788Z,3.50
2019-01-10T01:21:23.240Z,3.50
2019-01-10T01:23:52.643Z,3.50
2019-01-10T01:26:22.117Z,3.50
2019-01-10T01:28:51.564Z,3.50
2019-01-10T01:31:21.086Z,3.50
2019-01-10T01:33:50.493Z,3.50
2019-01-10T01:36:19.957Z,3.50
2019-01-10T01:38:49.363Z,3.60
2019-01-10T01:41:18.751Z,3.60
2019-01-10T01:43:48.138Z,3.60
2019-01-10T01:46:17.601Z,3.60
2019-01-10T01:48:47.019Z,3.60
2019-01-10T01:51:16.481Z,3.60
2019-01-10T01:53:45.961Z,3.60
2019-01-10T01:56:15.415Z,3.60
2019-01-10T01:58:44.888Z,3.60
2019-01-10T02:01:14.354Z,3.60
2019-01-10T02:03:43.876Z,3.60
2019-01-10T02:06:13.391Z,3.50
2019-01-10T02:08:42.935Z,3.50
2019-01-10T02:11:12.497Z,3.50
2019-01-10T02:13:41.969Z,3.60
2019-01-10T02:16:12.531Z,3.60
2019-01-10T02:21:35.329Z,3.60
2019-01-10T02:24:04.933Z,3.60
2019-01-10T02:26:34.405Z,3.50
2019-01-10T02:29:03.782Z,3.50
2019-01-10T02:31:33.356Z,3.50
2019-01-10T02:34:02.939Z,3.50
2019-01-10T02:36:32.701Z,3.40
2019-01-10T02:39:02.294Z,3.50
2019-01-10T02:41:31.714Z,3.50
2019-01-10T02:44:01.150Z,3.50
2019-01-10T02:46:30.728Z,3.40
2019-01-10T02:49:00.196Z,3.40
2019-01-10T02:51:29.772Z,3.40
2019-01-10T02:53:59.232Z,3.40
2019-01-10T02:56:28.644Z,3.40
2019-01-10T02:58:58.091Z,3.40
2019-01-10T03:01:27.589Z,3.40
2019-01-10T03:03:56.988Z,3.40
2019-01-10T03:06:26.402Z,3.40
2019-01-10T03:08:55.948Z,3.40
2019-01-10T03:11:25.414Z,3.40
2019-01-10T03:13:54.854Z,3.40
2019-01-10T03:16:24.262Z,3.40
2019-01-10T03:18:53.772Z,3.30
2019-01-10T03:21:23.255Z,3.30
2019-01-10T03:23:52.726Z,3.30
2019-01-10T03:26:22.270Z,3.30
2019-01-10T03:28:52.322Z,3.30
2019-01-10T03:31:21.856Z,3.30
2019-01-10T03:33:52.954Z,3.30
2019-01-10T03:36:22.476Z,3.30
2019-01-10T03:38:52.264Z,3.20
2019-01-10T03:41:21.808Z,3.30
2019-01-10T03:43:51.366Z,3.20
2019-01-10T03:46:20.834Z,3.20
2019-01-10T03:48:53.174Z,3.20
2019-01-10T03:51:22.671Z,3.20
2019-01-10T03:53:53.828Z,3.20
2019-01-10T03:56:23.302Z,3.10
2019-01-10T03:58:52.690Z,3.10
2019-01-10T04:01:22.280Z,3.10
2019-01-10T04:03:51.820Z,3.10
2019-01-10T04:06:21.262Z,3.10
2019-01-10T04:08:50.802Z,3.10
2019-01-10T04:11:20.442Z,3.10
2019-01-10T04:13:57.257Z,3.10
2019-01-10T04:16:21.030Z,3.10
2019-01-10T04:18:50.578Z,3.00
2019-01-10T04:21:19.975Z,3.00
2019-01-10T04:23:52.748Z,3.00
2019-01-10T04:26:22.204Z,3.00
2019-01-10T04:28:51.653Z,2.90
2019-01-10T04:31:21.088Z,2.90
2019-01-10T04:33:50.542Z,2.90
2019-01-10T04:36:20.105Z,2.90
2019-01-10T04:38:49.586Z,2.90
2019-01-10T04:41:19.075Z,2.90
2019-01-10T04:43:48.450Z,2.90
2019-01-10T04:46:17.949Z,2.80
2019-01-10T04:48:47.415Z,2.80
2019-01-10T04:51:16.772Z,2.80
2019-01-10T04:53:46.220Z,2.80
2019-01-10T04:56:15.682Z,2.80
2019-01-10T04:58:45.083Z,2.70
2019-01-10T05:01:14.557Z,2.70
2019-01-10T05:03:44.035Z,2.80
2019-01-10T05:06:13.513Z,2.80
2019-01-10T05:08:42.906Z,2.70
2019-01-10T05:11:12.409Z,2.80
2019-01-10T05:13:41.855Z,2.80
2019-01-10T05:16:11.278Z,2.80
2019-01-10T05:18:40.760Z,2.80
2019-01-10T05:21:10.270Z,2.80
2019-01-10T05:23:39.731Z,2.80
2019-01-10T05:26:09.286Z,2.80
2019-01-10T05:28:38.817Z,2.80
2019-01-10T05:31:08.290Z,2.90
2019-01-10T05:33:37.780Z,2.90
2019-01-10T05:36:07.287Z,2.90
2019-01-10T05:38:36.762Z,2.80
2019-01-10T05:41:07.924Z,2.80
2019-01-10T05:43:37.390Z,2.80
2019-01-10T05:46:06.992Z,2.90
2019-01-10T05:48:36.450Z,2.80
2019-01-10T05:51:05.957Z,2.80
2019-01-10T05:53:35.518Z,2.80
2019-01-10T05:56:14.889Z,2.80
2019-01-10T05:58:36.618Z,2.80
2019-01-10T06:01:06.133Z,2.80
2019-01-10T06:03:35.722Z,2.80
2019-01-10T06:06:05.293Z,2.80
2019-01-10T06:08:34.749Z,2.80
2019-01-10T06:11:04.162Z,2.90
2019-01-10T06:13:33.607Z,2.80
2019-01-10T06:16:03.020Z,2.80
2019-01-10T06:18:32.410Z,2.90
2019-01-10T06:21:01.850Z,2.80
2019-01-10T06:23:31.345Z,2.80
2019-01-10T06:26:00.906Z,2.80
2019-01-10T06:28:30.341Z,2.80
2019-01-10T06:30:59.915Z,2.80
2019-01-10T06:33:29.319Z,2.80
2019-01-10T06:35:58.798Z,2.90
2019-01-10T06:38:28.551Z,2.90
2019-01-10T06:40:58.023Z,2.90
2019-01-10T06:43:28.448Z,2.90
2019-01-10T06:45:57.866Z,2.90
2019-01-10T06:48:27.227Z,2.90
2019-01-10T06:50:56.700Z,2.90
2019-01-10T06:53:26.199Z,2.90
2019-01-10T06:55:55.692Z,2.90
2019-01-10T06:58:25.119Z,2.90
2019-01-10T07:00:54.575Z,3.00
2019-01-10T07:03:24.175Z,3.00
2019-01-10T07:05:53.666Z,3.00
2019-01-10T07:08:23.048Z,3.00
2019-01-10T07:10:52.501Z,3.00
2019-01-10T07:13:21.888Z,3.00
2019-01-10T07:15:51.311Z,3.10
2019-01-10T07:18:20.716Z,3.10
2019-01-10T07:20:52.136Z,3.10
2019-01-10T07:23:21.210Z,3.10
2019-01-10T07:25:53.515Z,3.10
2019-01-10T07:28:25.935Z,3.00
2019-01-10T07:30:55.972Z,3.10
2019-01-10T07:33:25.367Z,3.10
2019-01-10T07:35:55.869Z,3.10
2019-01-10T07:38:25.386Z,3.10
2019-01-10T07:40:54.841Z,3.10
2019-01-10T07:43:25.137Z,3.10
2019-01-10T07:45:54.794Z,3.10
2019-01-10T07:48:24.253Z,3.20
2019-01-10T07:50:55.407Z,3.20
2019-01-10T07:53:25.015Z,3.20
2019-01-10T07:55:54.507Z,3.20
2019-01-10T07:58:23.889Z,3.20
2019-01-10T08:00:54.011Z,3.30
2019-01-10T08:03:23.579Z,3.30
2019-01-10T08:05:53.107Z,3.30
2019-01-10T08:08:22.503Z,3.30
2019-01-10T08:10:51.941Z,3.30
2019-01-10T08:13:21.469Z,3.40
2019-01-10T08:15:50.863Z,3.30
2019-01-10T08:18:20.385Z,3.40
2019-01-10T08:20:49.940Z,3.40
2019-01-10T08:23:19.534Z,3.50
2019-01-10T08:25:48.903Z,3.50
2019-01-10T08:28:18.324Z,3.50
2019-01-10T08:30:47.791Z,3.60
2019-01-10T08:33:17.301Z,3.60
2019-01-10T08:35:48.445Z,3.60
2019-01-10T08:38:17.993Z,3.70
2019-01-10T08:40:47.428Z,3.70
2019-01-10T08:43:16.827Z,3.80
2019-01-10T08:45:46.555Z,3.90
2019-01-10T08:48:17.657Z,3.90
2019-01-10T08:50:47.279Z,3.90
2019-01-10T08:53:16.713Z,4.00
2019-01-10T08:55:46.153Z,4.00
2019-01-10T08:58:15.604Z,4.00
2019-01-10T09:00:45.149Z,4.10
2019-01-10T09:03:14.617Z,4.10
2019-01-10T09:05:44.101Z,4.20
2019-01-10T09:08:13.625Z,4.20
2019-01-10T09:10:43.191Z,4.20
2019-01-10T09:13:12.635Z,4.30
2019-01-10T09:15:42.125Z,4.30
2019-01-10T09:18:11.693Z,4.40
2019-01-10T09:20:41.153Z,4.40
2019-01-10T09:23:10.579Z,4.40
2019-01-10T09:25:40.037Z,4.40
2019-01-10T09:28:09.578Z,4.40
2019-01-10T09:30:39.220Z,4.50
2019-01-10T09:33:08.713Z,4.50
2019-01-10T09:35:38.278Z,4.50
2019-01-10T09:38:07.847Z,4.50
2019-01-10T09:40:37.275Z,4.60
2019-01-10T09:43:06.799Z,4.60
2019-01-10T09:45:43.150Z,4.70
2019-01-10T09:48:07.455Z,4.70
2019-01-10T09:50:37.033Z,4.80
2019-01-10T09:53:06.545Z,4.80
2019-01-10T09:55:36.085Z,4.90
2019-01-10T09:58:05.605Z,4.90
2019-01-10T10:00:35.129Z,4.90
2019-01-10T10:03:04.979Z,4.90
2019-01-10T10:05:34.619Z,5.00
2019-01-10T10:08:05.769Z,5.00
2019-01-10T10:10:35.223Z,5.10
2019-01-10T10:13:05.386Z,5.10
2019-01-10T10:15:34.946Z,5.10
2019-01-10T10:18:04.698Z,5.20
2019-01-10T10:20:34.345Z,5.20
2019-01-10T10:23:03.870Z,5.20
2019-01-10T10:25:33.400Z,5.20
2019-01-10T10:28:02.837Z,5.30
2019-01-10T10:30:32.297Z,5.30
2019-01-10T10:33:01.790Z,5.40
2019-01-10T10:35:31.204Z,5.40
2019-01-10T10:38:00.732Z,5.50
2019-01-10T10:40:30.117Z,5.50
2019-01-10T10:42:59.691Z,5.60
2019-01-10T10:45:29.053Z,5.60
2019-01-10T10:47:58.629Z,5.70
2019-01-10T10:50:27.987Z,5.70
2019-01-10T10:52:57.463Z,5.70
2019-01-10T10:55:26.989Z,5.70
2019-01-10T10:57:56.521Z,5.70
2019-01-10T11:00:27.327Z,5.70
2019-01-10T11:02:57.034Z,5.70
2019-01-10T11:05:26.793Z,5.70
2019-01-10T11:07:56.259Z,5.80
2019-01-10T11:10:26.052Z,5.80
2019-01-10T11:12:57.115Z,5.90
2019-01-10T11:15:26.599Z,5.90
2019-01-10T11:17:57.337Z,6.00
2019-01-10T11:20:26.786Z,6.00
2019-01-10T11:22:56.253Z,6.10
2019-01-10T11:25:26.111Z,6.10
2019-01-10T11:27:55.754Z,6.10
2019-01-10T11:30:25.222Z,6.10
2019-01-10T11:32:54.705Z,6.10
2019-01-10T11:35:24.319Z,6.10
2019-01-10T11:37:53.794Z,6.10
2019-01-10T11:40:23.323Z,6.10
2019-01-10T11:42:52.864Z,6.10
2019-01-10T11:45:23.466Z,6.20
2019-01-10T11:47:52.933Z,6.20
2019-01-10T11:50:22.373Z,6.30
2019-01-10T11:52:51.785Z,6.30
2019-01-10T11:55:21.217Z,6.40
2019-01-10T11:57:50.721Z,6.40
2019-01-10T12:00:28.225Z,6.40
2019-01-10T12:02:57.883Z,6.40
2019-01-10T12:05:27.281Z,6.50
2019-01-10T12:07:56.756Z,6.50
2019-01-10T12:10:26.149Z,6.50
2019-01-10T12:12:55.633Z,6.50
2019-01-10T12:15:25.101Z,6.60
2019-01-10T12:17:54.557Z,6.60
2019-01-10T12:20:24.035Z,6.60
2019-01-10T12:22:53.554Z,6.60
2019-01-10T12:25:23.119Z,6.60
2019-01-10T12:27:52.527Z,6.60
2019-01-10T12:30:23.815Z,6.70
2019-01-10T12:32:53.410Z,6.70
2019-01-10T12:35:23.078Z,6.70
2019-01-10T12:37:52.480Z,6.80
2019-01-10T12:40:21.957Z,6.80
2019-01-10T12:42:51.538Z,6.90
2019-01-10T12:45:21.681Z,6.90
2019-01-10T12:47:51.184Z,7.00
2019-01-10T12:50:22.987Z,7.00
2019-01-10T12:52:52.450Z,7.10
2019-01-10T12:55:21.913Z,7.10
2019-01-10T12:57:51.455Z,7.20
2019-01-10T13:00:23.230Z,7.20
2019-01-10T13:02:54.031Z,7.30
2019-01-10T13:05:23.526Z,7.30
2019-01-10T13:07:53.021Z,7.30
2019-01-10T13:10:22.630Z,7.30
2019-01-10T13:12:53.930Z,7.30
2019-01-10T13:15:25.142Z,7.30
2019-01-10T13:17:54.734Z,7.30
2019-01-10T13:20:24.366Z,7.30
2019-01-10T13:22:53.871Z,7.30
2019-01-10T13:25:23.445Z,7.30
2019-01-10T13:27:52.940Z,7.20
2019-01-10T13:30:24.056Z,7.20
2019-01-10T13:32:53.863Z,7.20
2019-01-10T13:35:23.368Z,7.20
2019-01-10T13:37:53.566Z,7.20
2019-01-10T13:40:23.406Z,7.20
2019-01-10T13:42:52.975Z,7.20
2019-01-10T13:45:22.528Z,7.20
2019-01-10T13:47:52.316Z,7.20
2019-01-10T13:50:24.747Z,7.30
2019-01-10T13:52:54.364Z,7.30
2019-01-10T13:55:24.125Z,7.30
2019-01-10T13:57:53.566Z,7.30
2019-01-10T14:00:25.401Z,7.40
2019-01-10T14:02:54.931Z,7.40
2019-01-10T14:05:24.393Z,7.40
2019-01-10T14:07:54.276Z,7.40
2019-01-10T14:10:23.812Z,7.40
2019-01-10T14:12:53.369Z,7.40
2019-01-10T14:15:25.448Z,7.40
2019-01-10T14:17:55.133Z,7.40
2019-01-10T14:20:24.646Z,7.30
2019-01-10T14:22:54.173Z,7.30
2019-01-10T14:25:23.750Z,7.30
2019-01-10T14:27:59.344Z,7.30
2019-01-10T14:30:27.198Z,7.20
2019-01-10T14:32:56.700Z,7.20
2019-01-10T14:35:26.414Z,7.20
2019-01-10T14:37:55.893Z,7.20
2019-01-10T14:40:25.374Z,7.20
2019-01-10T14:42:54.853Z,7.20
2019-01-10T14:45:24.450Z,7.10
2019-01-10T14:47:54.095Z,7.10
2019-01-10T14:50:24.107Z,7.00
2019-01-10T14:52:54.703Z,7.00
2019-01-10T14:55:24.104Z,7.00
2019-01-10T14:57:53.656Z,7.00
2019-01-10T15:00:24.320Z,6.90
2019-01-10T15:02:53.699Z,6.90
2019-01-10T15:05:23.286Z,6.90
2019-01-10T15:07:52.665Z,6.90
2019-01-10T15:10:22.162Z,6.80
2019-01-10T15:12:51.973Z,6.80
2019-01-10T15:15:22.460Z,6.80
2019-01-10T15:17:51.890Z,6.80
2019-01-10T15:20:26.496Z,6.70
2019-01-10T15:22:55.900Z,6.70
2019-01-10T15:25:25.386Z,6.70
2019-01-10T15:27:54.870Z,6.60
2019-01-10T15:30:26.217Z,6.60
2019-01-10T15:32:55.720Z,6.60
2019-01-10T15:35:25.181Z,6.60
2019-01-10T15:37:54.636Z,6.60
2019-01-10T15:40:26.708Z,6.60
2019-01-10T15:42:56.317Z,6.60
2019-01-10T15:45:26.182Z,6.60
2019-01-10T15:47:55.727Z,6.60
2019-01-10T15:50:25.370Z,6.60
2019-01-10T15:52:54.828Z,6.60
2019-01-10T15:55:24.388Z,6.60
2019-01-10T15:57:53.874Z,6.60
2019-01-10T16:00:24.476Z,6.60
2019-01-10T16:02:54.004Z,6.60
2019-01-10T16:05:23.578Z,6.50
2019-01-10T16:07:53.465Z,6.50
2019-01-10T16:10:22.939Z,6.50
2019-01-10T16:12:52.335Z,6.50
2019-01-10T16:15:23.580Z,6.50
2019-01-10T16:17:53.105Z,6.50
2019-01-10T16:20:22.674Z,6.40
2019-01-10T16:22:52.323Z,6.40
2019-01-10T16:25:23.500Z,6.40
2019-01-10T16:27:54.588Z,6.40
2019-01-10T16:30:30.324Z,6.30
2019-01-10T16:33:01.515Z,6.30
2019-01-10T16:35:32.670Z,6.30
2019-01-10T16:38:03.952Z,6.30
2019-01-10T16:40:35.174Z,6.20
2019-01-10T16:43:04.694Z,6.20
2019-01-10T16:45:35.916Z,6.20
2019-01-10T16:48:07.204Z,6.10
2019-01-10T16:50:38.348Z,6.10
2019-01-10T16:53:09.512Z,6.10
2019-01-10T16:55:39.010Z,6.10
2019-01-10T16:58:10.192Z,6.10
2019-01-10T17:00:40.720Z,6.00
2019-01-10T17:03:11.826Z,6.00
2019-01-10T17:05:41.814Z,6.00
2019-01-10T17:08:12.062Z,6.00
2019-01-10T17:10:43.194Z,5.90
2019-01-10T17:13:14.352Z,5.90
2019-01-10T17:15:45.510Z,5.90
2019-01-10T17:18:16.762Z,5.90
2019-01-10T17:20:47.252Z,5.80
2019-01-10T17:23:18.354Z,5.80
2019-01-10T17:25:47.832Z,5.80
2019-01-10T17:28:17.200Z,5.80
2019-01-10T17:30:46.735Z,5.70
2019-01-10T17:33:16.090Z,5.80
2019-01-10T17:35:45.544Z,5.80
2019-01-10T17:38:15.112Z,5.70
2019-01-10T17:40:44.530Z,5.70
2019-01-10T17:43:14.184Z,5.70
2019-01-10T17:45:43.735Z,5.70
2019-01-10T17:48:13.254Z,5.70
2019-01-10T17:50:42.710Z,5.60
2019-01-10T17:53:12.259Z,5.60
2019-01-10T17:55:41.732Z,5.60
2019-01-10T17:58:11.209Z,5.60
2019-01-10T18:00:40.710Z,5.60
2019-01-10T18:03:10.208Z,5.70
2019-01-10T18:05:40.010Z,5.60
2019-01-10T18:08:10.396Z,5.60
2019-01-10T18:10:39.834Z,5.60
2019-01-10T18:13:09.309Z,5.60
2019-01-10T18:15:38.760Z,5.50
2019-01-10T18:18:08.386Z,5.50
2019-01-10T18:20:38.058Z,5.50
2019-01-10T18:23:07.634Z,5.50
2019-01-10T18:25:37.027Z,5.60
2019-01-10T18:28:07.442Z,5.60
2019-01-10T18:30:43.135Z,5.60
2019-01-10T18:33:08.053Z,5.60
2019-01-10T18:35:37.694Z,5.50
2019-01-10T18:38:07.210Z,5.60
2019-01-10T18:40:36.748Z,5.50
2019-01-10T18:43:06.211Z,5.60
2019-01-10T18:45:35.747Z,5.60
2019-01-10T18:48:05.294Z,5.60
2019-01-10T18:50:34.942Z,5.60
2019-01-10T18:53:04.554Z,5.60
2019-01-10T18:55:34.050Z,5.60
2019-01-10T18:58:03.566Z,5.60
2019-01-10T19:00:33.075Z,5.60
2019-01-10T19:03:02.584Z,5.60
2019-01-10T19:05:32.161Z,5.60
2019-01-10T19:08:01.622Z,5.60
2019-01-10T19:10:31.238Z,5.60
2019-01-10T19:13:00.709Z,5.50
2019-01-10T19:15:30.257Z,5.50
2019-01-10T19:18:03.285Z,5.50
2019-01-10T19:20:30.860Z,5.50
2019-01-10T19:23:00.337Z,5.50
2019-01-10T19:25:29.780Z,5.50
2019-01-10T19:27:59.262Z,5.50
2019-01-10T19:30:30.190Z,5.50
2019-01-10T19:32:59.661Z,5.50
2019-01-10T19:35:29.104Z,5.50
2019-01-10T19:37:58.512Z,5.50
2019-01-10T19:40:28.018Z,5.50
2019-01-10T19:42:57.444Z,5.50
2019-01-10T19:45:26.895Z,5.50
2019-01-10T19:47:58.031Z,5.50
2019-01-10T19:50:27.534Z,5.60
2019-01-10T19:52:57.110Z,5.50
2019-01-10T19:55:26.762Z,5.50
2019-01-10T19:57:56.320Z,5.50
2019-01-10T20:00:34.267Z,5.60
2019-01-10T20:03:03.962Z,5.60
2019-01-10T20:05:34.018Z,5.60
2019-01-10T20:08:03.663Z,5.60
2019-01-10T20:10:33.042Z,5.60
2019-01-10T20:13:02.725Z,5.60
2019-01-10T20:15:32.260Z,5.60
2019-01-10T20:18:03.106Z,5.60
2019-01-10T20:20:35.590Z,5.60
2019-01-10T20:23:07.055Z,5.60
2019-01-10T20:25:37.623Z,5.60
2019-01-10T20:28:07.187Z,5.60
2019-01-10T20:30:36.816Z,5.60
2019-01-10T20:33:06.440Z,5.60
2019-01-10T20:35:36.019Z,5.60
2019-01-10T20:38:05.554Z,5.60
2019-01-10T20:40:35.248Z,5.60
2019-01-10T20:43:04.837Z,5.60
2019-01-10T20:45:36.102Z,5.50
2019-01-10T20:48:05.538Z,5.50
2019-01-10T20:50:34.996Z,5.50
2019-01-10T20:53:04.625Z,5.40
2019-01-10T20:55:34.138Z,5.40
2019-01-10T20:58:03.822Z,5.40
2019-01-10T21:00:33.298Z,5.40
2019-01-10T21:03:02.754Z,5.30
2019-01-10T21:05:32.254Z,5.30
2019-01-10T21:08:01.754Z,5.30
2019-01-10T21:10:31.721Z,5.20
2019-01-10T21:13:01.355Z,5.20
2019-01-10T21:15:30.816Z,5.20
2019-01-10T21:18:00.490Z,5.20
2019-01-10T21:20:30.054Z,5.20
2019-01-10T21:22:59.593Z,5.10
2019-01-10T21:25:29.369Z,5.10
2019-01-10T21:27:58.963Z,5.20
2019-01-10T21:30:28.435Z,5.10
2019-01-10T21:32:58.425Z,5.20
2019-01-10T21:35:28.008Z,5.20
2019-01-10T21:37:57.565Z,5.20
2019-01-10T21:40:28.611Z,5.20
2019-01-10T21:42:58.685Z,5.20
2019-01-10T21:45:28.191Z,5.10
2019-01-10T21:47:57.589Z,5.20
2019-01-10T21:50:27.320Z,5.10
2019-01-10T21:52:56.841Z,5.10
2019-01-10T21:55:26.333Z,5.10
2019-01-10T21:57:55.782Z,5.20
2019-01-10T22:00:31.523Z,5.20
2019-01-10T22:03:01.333Z,5.10
2019-01-10T22:05:30.874Z,5.20
2019-01-10T22:08:01.688Z,5.10
2019-01-10T22:10:31.947Z,5.10
2019-01-10T22:13:01.426Z,5.10
2019-01-10T22:15:31.005Z,5.10
2019-01-10T22:18:00.442Z,5.10
2019-01-10T22:20:29.928Z,5.10
2019-01-10T22:22:59.357Z,5.10
2019-01-10T22:25:28.809Z,5.10
2019-01-10T22:27:58.353Z,5.00
2019-01-10T22:30:28.213Z,5.00
2019-01-10T22:32:57.683Z,5.00
2019-01-10T22:35:27.153Z,5.00
2019-01-10T22:37:56.707Z,5.00
2019-01-10T22:40:26.129Z,5.00
2019-01-10T22:42:55.736Z,5.00
2019-01-10T22:45:25.181Z,5.00
2019-01-10T22:47:54.743Z,5.00
2019-01-10T22:50:24.401Z,5.10
2019-01-10T22:52:53.875Z,5.10
2019-01-10T22:55:23.351Z,5.10
2019-01-10T22:57:52.751Z,5.10
2019-01-10T23:00:59.774Z,5.10
2019-01-10T23:03:32.568Z,5.10
2019-01-10T23:06:02.133Z,5.10
2019-01-10T23:08:31.523Z,5.10
2019-01-10T23:11:00.918Z,5.10
2019-01-10T23:13:30.383Z,5.10
2019-01-10T23:16:00.179Z,5.10
2019-01-10T23:18:29.642Z,5.10
2019-01-10T23:20:59.854Z,5.00
2019-01-10T23:23:29.348Z,5.00
2019-01-10T23:25:58.717Z,5.00
2019-01-10T23:28:28.223Z,5.00
2019-01-10T23:31:00.177Z,5.00
2019-01-10T23:33:29.735Z,5.00
2019-01-10T23:36:01.391Z,4.90
2019-01-10T23:38:31.079Z,4.90
2019-01-10T23:41:00.706Z,4.90
2019-01-10T23:43:30.403Z,4.90
2019-01-10T23:45:59.935Z,4.90
2019-01-10T23:48:29.417Z,4.80
2019-01-10T23:50:58.901Z,4.80
2019-01-10T23:53:28.311Z,4.80
2019-01-10T23:55:57.840Z,4.80
2019-01-10T23:58:27.278Z,4.70
